sensor_id;sensor_type;location;lat;lon;timestamp;P1;durP1;ratioP1;P2;durP2;ratioP2
58242;SDS011;50118;53.232;8.252;2023-03-01T00:01:49;37.20;;;20.05;;
58242;SDS011;50118;53.232;8.252;2023-03-01T00:04:14;40.13;;;21.00;;
58242;SDS011;50118;53.232;8.252;2023-03-01T00:06:40;39.13;;;20.27;;
58242;SDS011;50118;53.232;8.252;2023-03-01T00:09:07;40.38;;;20.55;;
58242;SDS011;50118;53.232;8.252;2023-03-01T00:11:33;35.63;;;19.23;;
58242;SDS011;50118;53.232;8.252;2023-03-01T00:13:59;39.47;;;19.95;;
58242;SDS011;50118;53.232;8.252;2023-03-01T00:16:27;43.92;;;21.05;;
58242;SDS011;50118;53.232;8.252;2023-03-01T00:18:55;37.65;;;19.83;;
58242;SDS011;50118;53.232;8.252;2023-03-01T00:21:21;41.85;;;21.58;;
58242;SDS011;50118;53.232;8.252;2023-03-01T00:23:47;43.53;;;21.02;;
58242;SDS011;50118;53.232;8.252;2023-03-01T00:26:16;40.05;;;20.60;;
58242;SDS011;50118;53.232;8.252;2023-03-01T00:28:43;37.33;;;19.90;;
58242;SDS011;50118;53.232;8.252;2023-03-01T00:31:13;40.45;;;20.38;;
58242;SDS011;50118;53.232;8.252;2023-03-01T00:33:40;39.05;;;19.83;;
58242;SDS011;50118;53.232;8.252;2023-03-01T00:36:07;37.17;;;19.75;;
58242;SDS011;50118;53.232;8.252;2023-03-01T00:38:37;37.35;;;19.52;;
58242;SDS011;50118;53.232;8.252;2023-03-01T00:41:04;37.72;;;19.55;;
58242;SDS011;50118;53.232;8.252;2023-03-01T00:43:33;37.78;;;19.70;;
58242;SDS011;50118;53.232;8.252;2023-03-01T00:46:04;36.40;;;19.05;;
58242;SDS011;50118;53.232;8.252;2023-03-01T00:48:31;34.28;;;18.23;;
58242;SDS011;50118;53.232;8.252;2023-03-01T00:51:03;35.30;;;18.38;;
58242;SDS011;50118;53.232;8.252;2023-03-01T00:53:31;37.30;;;19.00;;
58242;SDS011;50118;53.232;8.252;2023-03-01T00:55:57;36.47;;;19.45;;
58242;SDS011;50118;53.232;8.252;2023-03-01T00:58:23;39.33;;;19.08;;
58242;SDS011;50118;53.232;8.252;2023-03-01T01:00:49;36.95;;;19.55;;
58242;SDS011;50118;53.232;8.252;2023-03-01T01:03:15;33.47;;;18.50;;
58242;SDS011;50118;53.232;8.252;2023-03-01T01:05:40;37.90;;;18.92;;
58242;SDS011;50118;53.232;8.252;2023-03-01T01:08:06;39.60;;;20.02;;
58242;SDS011;50118;53.232;8.252;2023-03-01T01:10:33;40.53;;;18.98;;
58242;SDS011;50118;53.232;8.252;2023-03-01T01:12:59;37.00;;;18.73;;
58242;SDS011;50118;53.232;8.252;2023-03-01T01:15:24;42.53;;;20.27;;
58242;SDS011;50118;53.232;8.252;2023-03-01T01:17:50;43.92;;;19.52;;
58242;SDS011;50118;53.232;8.252;2023-03-01T01:20:15;43.92;;;20.23;;
58242;SDS011;50118;53.232;8.252;2023-03-01T01:22:41;53.17;;;23.05;;
58242;SDS011;50118;53.232;8.252;2023-03-01T01:25:06;61.00;;;25.55;;
58242;SDS011;50118;53.232;8.252;2023-03-01T01:27:32;45.40;;;21.33;;
58242;SDS011;50118;53.232;8.252;2023-03-01T01:29:57;45.33;;;20.50;;
58242;SDS011;50118;53.232;8.252;2023-03-01T01:32:23;42.63;;;19.77;;
58242;SDS011;50118;53.232;8.252;2023-03-01T01:34:48;41.03;;;20.15;;
58242;SDS011;50118;53.232;8.252;2023-03-01T01:37:14;43.95;;;20.02;;
58242;SDS011;50118;53.232;8.252;2023-03-01T01:39:39;40.72;;;20.50;;
58242;SDS011;50118;53.232;8.252;2023-03-01T01:42:05;42.38;;;19.15;;
58242;SDS011;50118;53.232;8.252;2023-03-01T01:44:30;44.53;;;21.30;;
58242;SDS011;50118;53.232;8.252;2023-03-01T01:47:03;43.08;;;20.65;;
58242;SDS011;50118;53.232;8.252;2023-03-01T01:52:18;41.00;;;19.52;;
58242;SDS011;50118;53.232;8.252;2023-03-01T01:57:34;51.72;;;23.35;;
58242;SDS011;50118;53.232;8.252;2023-03-01T02:00:07;44.25;;;22.33;;
58242;SDS011;50118;53.232;8.252;2023-03-01T02:02:39;49.40;;;23.75;;
58242;SDS011;50118;53.232;8.252;2023-03-01T02:05:25;48.65;;;22.88;;
58242;SDS011;50118;53.232;8.252;2023-03-01T02:08:19;48.90;;;22.38;;
58242;SDS011;50118;53.232;8.252;2023-03-01T02:10:45;51.00;;;23.02;;
58242;SDS011;50118;53.232;8.252;2023-03-01T02:13:13;48.92;;;24.58;;
58242;SDS011;50118;53.232;8.252;2023-03-01T02:15:39;54.08;;;26.08;;
58242;SDS011;50118;53.232;8.252;2023-03-01T02:18:09;57.60;;;24.30;;
58242;SDS011;50118;53.232;8.252;2023-03-01T02:20:40;48.30;;;23.77;;
58242;SDS011;50118;53.232;8.252;2023-03-01T02:23:18;52.30;;;24.20;;
58242;SDS011;50118;53.232;8.252;2023-03-01T02:25:52;55.60;;;25.08;;
58242;SDS011;50118;53.232;8.252;2023-03-01T02:30:52;52.80;;;24.63;;
58242;SDS011;50118;53.232;8.252;2023-03-01T02:33:37;52.80;;;24.02;;
58242;SDS011;50118;53.232;8.252;2023-03-01T02:36:14;51.25;;;22.92;;
58242;SDS011;50118;53.232;8.252;2023-03-01T02:38:43;44.97;;;22.00;;
58242;SDS011;50118;53.232;8.252;2023-03-01T02:41:10;42.92;;;20.83;;
58242;SDS011;50118;53.232;8.252;2023-03-01T02:43:39;46.58;;;21.27;;
58242;SDS011;50118;53.232;8.252;2023-03-01T02:46:07;42.03;;;20.90;;
58242;SDS011;50118;53.232;8.252;2023-03-01T02:48:42;43.10;;;21.48;;
58242;SDS011;50118;53.232;8.252;2023-03-01T02:53:53;38.47;;;19.85;;
58242;SDS011;50118;53.232;8.252;2023-03-01T02:56:20;37.03;;;18.73;;
58242;SDS011;50118;53.232;8.252;2023-03-01T02:58:46;40.10;;;19.65;;
58242;SDS011;50118;53.232;8.252;2023-03-01T03:01:16;40.08;;;20.58;;
58242;SDS011;50118;53.232;8.252;2023-03-01T03:03:41;46.15;;;22.73;;
58242;SDS011;50118;53.232;8.252;2023-03-01T03:06:07;46.67;;;22.67;;
58242;SDS011;50118;53.232;8.252;2023-03-01T03:08:33;49.70;;;22.67;;
58242;SDS011;50118;53.232;8.252;2023-03-01T03:10:58;46.33;;;21.88;;
58242;SDS011;50118;53.232;8.252;2023-03-01T03:13:24;44.85;;;21.08;;
58242;SDS011;50118;53.232;8.252;2023-03-01T03:15:54;42.85;;;21.17;;
58242;SDS011;50118;53.232;8.252;2023-03-01T03:18:22;47.90;;;22.33;;
58242;SDS011;50118;53.232;8.252;2023-03-01T03:20:51;45.20;;;21.70;;
58242;SDS011;50118;53.232;8.252;2023-03-01T03:23:18;43.25;;;20.73;;
58242;SDS011;50118;53.232;8.252;2023-03-01T03:25:47;44.05;;;21.75;;
58242;SDS011;50118;53.232;8.252;2023-03-01T03:28:15;43.97;;;20.45;;
58242;SDS011;50118;53.232;8.252;2023-03-01T03:30:41;40.22;;;20.00;;
58242;SDS011;50118;53.232;8.252;2023-03-01T03:33:08;43.20;;;21.38;;
58242;SDS011;50118;53.232;8.252;2023-03-01T03:35:38;43.83;;;21.17;;
58242;SDS011;50118;53.232;8.252;2023-03-01T03:38:11;43.88;;;20.95;;
58242;SDS011;50118;53.232;8.252;2023-03-01T03:40:41;41.38;;;20.50;;
58242;SDS011;50118;53.232;8.252;2023-03-01T03:43:10;41.75;;;21.60;;
58242;SDS011;50118;53.232;8.252;2023-03-01T03:45:47;42.22;;;21.55;;
58242;SDS011;50118;53.232;8.252;2023-03-01T03:48:13;40.97;;;20.98;;
58242;SDS011;50118;53.232;8.252;2023-03-01T03:50:40;42.42;;;22.00;;
58242;SDS011;50118;53.232;8.252;2023-03-01T03:53:11;40.47;;;22.40;;
58242;SDS011;50118;53.232;8.252;2023-03-01T03:55:37;44.30;;;24.30;;
58242;SDS011;50118;53.232;8.252;2023-03-01T03:58:04;45.80;;;23.40;;
58242;SDS011;50118;53.232;8.252;2023-03-01T04:00:38;40.92;;;22.55;;
58242;SDS011;50118;53.232;8.252;2023-03-01T04:03:06;42.08;;;22.80;;
58242;SDS011;50118;53.232;8.252;2023-03-01T04:05:32;44.47;;;23.83;;
58242;SDS011;50118;53.232;8.252;2023-03-01T04:07:58;45.72;;;22.88;;
58242;SDS011;50118;53.232;8.252;2023-03-01T04:10:31;50.55;;;25.13;;
58242;SDS011;50118;53.232;8.252;2023-03-01T04:12:58;41.35;;;22.92;;
58242;SDS011;50118;53.232;8.252;2023-03-01T04:15:24;44.40;;;22.92;;
58242;SDS011;50118;53.232;8.252;2023-03-01T04:17:51;43.08;;;23.65;;
58242;SDS011;50118;53.232;8.252;2023-03-01T04:20:24;42.35;;;22.77;;
58242;SDS011;50118;53.232;8.252;2023-03-01T04:22:52;47.03;;;23.92;;
58242;SDS011;50118;53.232;8.252;2023-03-01T04:25:56;49.55;;;23.80;;
58242;SDS011;50118;53.232;8.252;2023-03-01T04:28:33;42.28;;;22.45;;
58242;SDS011;50118;53.232;8.252;2023-03-01T04:31:08;42.50;;;22.33;;
58242;SDS011;50118;53.232;8.252;2023-03-01T04:33:49;47.35;;;23.90;;
58242;SDS011;50118;53.232;8.252;2023-03-01T04:36:19;48.33;;;23.70;;
58242;SDS011;50118;53.232;8.252;2023-03-01T04:38:50;48.35;;;23.55;;
58242;SDS011;50118;53.232;8.252;2023-03-01T04:41:17;47.00;;;24.77;;
58242;SDS011;50118;53.232;8.252;2023-03-01T04:43:44;49.20;;;23.67;;
58242;SDS011;50118;53.232;8.252;2023-03-01T04:46:11;42.75;;;23.42;;
58242;SDS011;50118;53.232;8.252;2023-03-01T04:48:38;44.75;;;22.80;;
58242;SDS011;50118;53.232;8.252;2023-03-01T04:51:06;48.83;;;23.20;;
58242;SDS011;50118;53.232;8.252;2023-03-01T04:53:33;42.63;;;21.90;;
58242;SDS011;50118;53.232;8.252;2023-03-01T04:56:01;41.88;;;20.88;;
58242;SDS011;50118;53.232;8.252;2023-03-01T04:58:27;42.53;;;22.63;;
58242;SDS011;50118;53.232;8.252;2023-03-01T05:00:54;42.03;;;21.70;;
58242;SDS011;50118;53.232;8.252;2023-03-01T05:03:20;45.42;;;23.10;;
58242;SDS011;50118;53.232;8.252;2023-03-01T05:05:47;42.85;;;22.63;;
58242;SDS011;50118;53.232;8.252;2023-03-01T05:08:17;45.90;;;22.70;;
58242;SDS011;50118;53.232;8.252;2023-03-01T05:10:47;43.55;;;23.05;;
58242;SDS011;50118;53.232;8.252;2023-03-01T05:15:46;42.95;;;21.27;;
58242;SDS011;50118;53.232;8.252;2023-03-01T05:18:13;44.33;;;22.88;;
58242;SDS011;50118;53.232;8.252;2023-03-01T05:20:39;51.08;;;24.00;;
58242;SDS011;50118;53.232;8.252;2023-03-01T05:23:05;50.00;;;23.95;;
58242;SDS011;50118;53.232;8.252;2023-03-01T05:25:31;50.83;;;24.73;;
58242;SDS011;50118;53.232;8.252;2023-03-01T05:27:58;52.25;;;25.08;;
58242;SDS011;50118;53.232;8.252;2023-03-01T05:30:29;46.80;;;24.27;;
58242;SDS011;50118;53.232;8.252;2023-03-01T05:32:55;53.10;;;25.80;;
58242;SDS011;50118;53.232;8.252;2023-03-01T05:35:21;51.33;;;26.30;;
58242;SDS011;50118;53.232;8.252;2023-03-01T05:37:47;49.95;;;25.98;;
58242;SDS011;50118;53.232;8.252;2023-03-01T05:40:15;48.05;;;24.70;;
58242;SDS011;50118;53.232;8.252;2023-03-01T05:42:46;47.80;;;24.08;;
58242;SDS011;50118;53.232;8.252;2023-03-01T05:45:21;45.83;;;22.77;;
58242;SDS011;50118;53.232;8.252;2023-03-01T05:47:48;49.97;;;23.02;;
58242;SDS011;50118;53.232;8.252;2023-03-01T05:50:15;47.00;;;24.27;;
58242;SDS011;50118;53.232;8.252;2023-03-01T05:52:45;48.22;;;24.02;;
58242;SDS011;50118;53.232;8.252;2023-03-01T05:55:13;44.92;;;22.30;;
58242;SDS011;50118;53.232;8.252;2023-03-01T05:57:39;47.83;;;24.23;;
58242;SDS011;50118;53.232;8.252;2023-03-01T06:00:04;45.88;;;23.80;;
58242;SDS011;50118;53.232;8.252;2023-03-01T06:02:31;45.35;;;22.90;;
58242;SDS011;50118;53.232;8.252;2023-03-01T06:04:56;41.17;;;21.13;;
58242;SDS011;50118;53.232;8.252;2023-03-01T06:07:22;45.00;;;22.27;;
58242;SDS011;50118;53.232;8.252;2023-03-01T06:09:47;44.55;;;21.40;;
58242;SDS011;50118;53.232;8.252;2023-03-01T06:12:13;41.50;;;21.00;;
58242;SDS011;50118;53.232;8.252;2023-03-01T06:14:38;39.55;;;19.98;;
58242;SDS011;50118;53.232;8.252;2023-03-01T06:17:03;39.22;;;21.88;;
58242;SDS011;50118;53.232;8.252;2023-03-01T06:19:29;45.03;;;22.92;;
58242;SDS011;50118;53.232;8.252;2023-03-01T06:21:54;40.90;;;20.95;;
58242;SDS011;50118;53.232;8.252;2023-03-01T06:24:20;40.40;;;19.73;;
58242;SDS011;50118;53.232;8.252;2023-03-01T06:26:45;41.35;;;21.35;;
58242;SDS011;50118;53.232;8.252;2023-03-01T06:29:10;40.97;;;20.75;;
58242;SDS011;50118;53.232;8.252;2023-03-01T06:31:36;43.15;;;22.15;;
58242;SDS011;50118;53.232;8.252;2023-03-01T06:34:01;41.22;;;21.27;;
58242;SDS011;50118;53.232;8.252;2023-03-01T06:36:27;44.78;;;22.23;;
58242;SDS011;50118;53.232;8.252;2023-03-01T06:38:52;40.88;;;22.23;;
58242;SDS011;50118;53.232;8.252;2023-03-01T06:41:18;43.30;;;21.63;;
58242;SDS011;50118;53.232;8.252;2023-03-01T06:43:43;40.45;;;20.58;;
58242;SDS011;50118;53.232;8.252;2023-03-01T06:46:09;39.85;;;21.17;;
58242;SDS011;50118;53.232;8.252;2023-03-01T06:48:34;39.42;;;20.85;;
58242;SDS011;50118;53.232;8.252;2023-03-01T06:51:00;45.65;;;26.15;;
58242;SDS011;50118;53.232;8.252;2023-03-01T06:53:27;69.32;;;38.50;;
58242;SDS011;50118;53.232;8.252;2023-03-01T06:55:56;42.55;;;23.67;;
58242;SDS011;50118;53.232;8.252;2023-03-01T06:58:22;42.65;;;22.08;;
58242;SDS011;50118;53.232;8.252;2023-03-01T07:00:48;41.72;;;22.00;;
58242;SDS011;50118;53.232;8.252;2023-03-01T07:03:14;37.80;;;22.13;;
58242;SDS011;50118;53.232;8.252;2023-03-01T07:05:39;42.17;;;24.80;;
58242;SDS011;50118;53.232;8.252;2023-03-01T07:08:05;43.50;;;24.38;;
58242;SDS011;50118;53.232;8.252;2023-03-01T07:10:30;39.50;;;23.70;;
58242;SDS011;50118;53.232;8.252;2023-03-01T07:12:56;38.78;;;23.00;;
58242;SDS011;50118;53.232;8.252;2023-03-01T07:15:22;37.38;;;22.00;;
58242;SDS011;50118;53.232;8.252;2023-03-01T07:17:48;33.45;;;20.73;;
58242;SDS011;50118;53.232;8.252;2023-03-01T07:20:16;35.47;;;21.63;;
58242;SDS011;50118;53.232;8.252;2023-03-01T07:22:42;40.58;;;22.67;;
58242;SDS011;50118;53.232;8.252;2023-03-01T07:25:08;34.83;;;21.42;;
58242;SDS011;50118;53.232;8.252;2023-03-01T07:27:35;36.38;;;23.98;;
58242;SDS011;50118;53.232;8.252;2023-03-01T07:30:00;37.10;;;24.98;;
58242;SDS011;50118;53.232;8.252;2023-03-01T07:32:26;35.97;;;24.23;;
58242;SDS011;50118;53.232;8.252;2023-03-01T07:34:51;38.38;;;25.52;;
58242;SDS011;50118;53.232;8.252;2023-03-01T07:37:17;37.70;;;25.15;;
58242;SDS011;50118;53.232;8.252;2023-03-01T07:39:42;38.92;;;26.48;;
58242;SDS011;50118;53.232;8.252;2023-03-01T07:42:08;40.78;;;29.50;;
58242;SDS011;50118;53.232;8.252;2023-03-01T07:44:33;38.42;;;23.77;;
58242;SDS011;50118;53.232;8.252;2023-03-01T07:47:02;35.80;;;24.75;;
58242;SDS011;50118;53.232;8.252;2023-03-01T07:49:28;42.33;;;29.58;;
58242;SDS011;50118;53.232;8.252;2023-03-01T07:51:54;40.58;;;27.83;;
58242;SDS011;50118;53.232;8.252;2023-03-01T07:54:19;35.47;;;25.52;;
58242;SDS011;50118;53.232;8.252;2023-03-01T07:56:45;31.17;;;23.25;;
58242;SDS011;50118;53.232;8.252;2023-03-01T07:59:11;32.72;;;23.02;;
58242;SDS011;50118;53.232;8.252;2023-03-01T08:01:36;28.92;;;21.30;;
58242;SDS011;50118;53.232;8.252;2023-03-01T08:04:01;33.35;;;22.67;;
58242;SDS011;50118;53.232;8.252;2023-03-01T08:06:27;30.58;;;22.02;;
58242;SDS011;50118;53.232;8.252;2023-03-01T08:08:53;31.48;;;22.27;;
58242;SDS011;50118;53.232;8.252;2023-03-01T08:11:20;31.77;;;22.92;;
58242;SDS011;50118;53.232;8.252;2023-03-01T08:13:46;37.42;;;25.63;;
58242;SDS011;50118;53.232;8.252;2023-03-01T08:16:13;36.83;;;25.20;;
58242;SDS011;50118;53.232;8.252;2023-03-01T08:18:40;37.70;;;24.20;;
58242;SDS011;50118;53.232;8.252;2023-03-01T08:21:07;32.35;;;23.10;;
58242;SDS011;50118;53.232;8.252;2023-03-01T08:23:35;36.72;;;24.95;;
58242;SDS011;50118;53.232;8.252;2023-03-01T08:28:37;36.30;;;23.48;;
58242;SDS011;50118;53.232;8.252;2023-03-01T08:31:12;35.45;;;24.52;;
58242;SDS011;50118;53.232;8.252;2023-03-01T08:33:53;36.00;;;24.40;;
58242;SDS011;50118;53.232;8.252;2023-03-01T08:36:25;29.80;;;22.02;;
58242;SDS011;50118;53.232;8.252;2023-03-01T08:38:52;27.15;;;20.10;;
58242;SDS011;50118;53.232;8.252;2023-03-01T08:41:18;27.65;;;20.13;;
58242;SDS011;50118;53.232;8.252;2023-03-01T08:43:44;27.20;;;19.90;;
58242;SDS011;50118;53.232;8.252;2023-03-01T08:46:10;28.25;;;19.55;;
58242;SDS011;50118;53.232;8.252;2023-03-01T08:48:36;28.05;;;20.00;;
58242;SDS011;50118;53.232;8.252;2023-03-01T08:51:11;26.52;;;18.75;;
58242;SDS011;50118;53.232;8.252;2023-03-01T08:53:41;27.65;;;19.35;;
58242;SDS011;50118;53.232;8.252;2023-03-01T08:56:07;27.35;;;19.80;;
58242;SDS011;50118;53.232;8.252;2023-03-01T08:58:33;25.00;;;18.98;;
58242;SDS011;50118;53.232;8.252;2023-03-01T09:00:59;25.55;;;18.83;;
58242;SDS011;50118;53.232;8.252;2023-03-01T09:03:25;36.38;;;25.58;;
58242;SDS011;50118;53.232;8.252;2023-03-01T09:05:51;30.20;;;21.35;;
58242;SDS011;50118;53.232;8.252;2023-03-01T09:08:17;34.83;;;24.13;;
58242;SDS011;50118;53.232;8.252;2023-03-01T09:10:43;26.80;;;18.83;;
58242;SDS011;50118;53.232;8.252;2023-03-01T09:13:09;23.85;;;17.75;;
58242;SDS011;50118;53.232;8.252;2023-03-01T09:15:36;25.23;;;16.38;;
58242;SDS011;50118;53.232;8.252;2023-03-01T09:18:03;29.55;;;18.30;;
58242;SDS011;50118;53.232;8.252;2023-03-01T09:20:30;23.60;;;17.52;;
58242;SDS011;50118;53.232;8.252;2023-03-01T09:22:55;27.48;;;19.92;;
58242;SDS011;50118;53.232;8.252;2023-03-01T09:25:21;26.25;;;18.70;;
58242;SDS011;50118;53.232;8.252;2023-03-01T09:27:47;24.65;;;18.48;;
58242;SDS011;50118;53.232;8.252;2023-03-01T09:30:12;21.13;;;14.57;;
58242;SDS011;50118;53.232;8.252;2023-03-01T09:32:38;18.65;;;13.23;;
58242;SDS011;50118;53.232;8.252;2023-03-01T09:35:07;16.10;;;12.18;;
58242;SDS011;50118;53.232;8.252;2023-03-01T09:37:34;18.98;;;11.27;;
58242;SDS011;50118;53.232;8.252;2023-03-01T09:40:00;14.98;;;11.18;;
58242;SDS011;50118;53.232;8.252;2023-03-01T09:42:28;14.00;;;10.10;;
58242;SDS011;50118;53.232;8.252;2023-03-01T09:45:06;14.35;;;10.00;;
58242;SDS011;50118;53.232;8.252;2023-03-01T09:47:43;16.23;;;9.60;;
58242;SDS011;50118;53.232;8.252;2023-03-01T09:50:12;12.75;;;8.75;;
58242;SDS011;50118;53.232;8.252;2023-03-01T09:52:43;14.15;;;10.10;;
58242;SDS011;50118;53.232;8.252;2023-03-01T09:55:11;15.32;;;10.75;;
58242;SDS011;50118;53.232;8.252;2023-03-01T09:57:49;15.63;;;10.88;;
58242;SDS011;50118;53.232;8.252;2023-03-01T10:06:14;16.52;;;11.02;;
58242;SDS011;50118;53.232;8.252;2023-03-01T10:09:00;15.90;;;10.82;;
58242;SDS011;50118;53.232;8.252;2023-03-01T10:11:31;16.00;;;11.75;;
58242;SDS011;50118;53.232;8.252;2023-03-01T10:19:36;15.50;;;10.60;;
58242;SDS011;50118;53.232;8.252;2023-03-01T10:22:24;16.92;;;11.27;;
58242;SDS011;50118;53.232;8.252;2023-03-01T10:24:57;16.48;;;10.80;;
58242;SDS011;50118;53.232;8.252;2023-03-01T10:27:25;15.23;;;10.80;;
58242;SDS011;50118;53.232;8.252;2023-03-01T10:30:05;15.13;;;9.55;;
58242;SDS011;50118;53.232;8.252;2023-03-01T10:32:34;16.85;;;9.77;;
58242;SDS011;50118;53.232;8.252;2023-03-01T10:34:59;13.95;;;9.57;;
58242;SDS011;50118;53.232;8.252;2023-03-01T10:37:25;16.17;;;10.05;;
58242;SDS011;50118;53.232;8.252;2023-03-01T10:42:27;12.73;;;8.77;;
58242;SDS011;50118;53.232;8.252;2023-03-01T10:44:53;12.57;;;8.50;;
58242;SDS011;50118;53.232;8.252;2023-03-01T10:47:20;12.68;;;8.45;;
58242;SDS011;50118;53.232;8.252;2023-03-01T10:50:22;16.25;;;10.48;;
58242;SDS011;50118;53.232;8.252;2023-03-01T10:52:54;14.57;;;9.70;;
58242;SDS011;50118;53.232;8.252;2023-03-01T11:00:55;14.40;;;10.00;;
58242;SDS011;50118;53.232;8.252;2023-03-01T11:03:29;17.45;;;11.10;;
58242;SDS011;50118;53.232;8.252;2023-03-01T11:11:44;18.35;;;11.60;;
58242;SDS011;50118;53.232;8.252;2023-03-01T11:14:00;17.92;;;11.40;;
58242;SDS011;50118;53.232;8.252;2023-03-01T11:16:28;17.48;;;11.10;;
58242;SDS011;50118;53.232;8.252;2023-03-01T11:18:57;18.23;;;11.48;;
58242;SDS011;50118;53.232;8.252;2023-03-01T11:21:41;19.10;;;11.32;;
58242;SDS011;50118;53.232;8.252;2023-03-01T11:24:15;19.35;;;11.40;;
58242;SDS011;50118;53.232;8.252;2023-03-01T11:26:45;19.83;;;10.43;;
58242;SDS011;50118;53.232;8.252;2023-03-01T11:29:37;18.73;;;9.30;;
58242;SDS011;50118;53.232;8.252;2023-03-01T11:32:05;17.65;;;10.70;;
58242;SDS011;50118;53.232;8.252;2023-03-01T11:34:38;16.50;;;9.65;;
58242;SDS011;50118;53.232;8.252;2023-03-01T11:37:19;20.10;;;10.32;;
58242;SDS011;50118;53.232;8.252;2023-03-01T11:42:54;17.88;;;9.35;;
58242;SDS011;50118;53.232;8.252;2023-03-01T11:45:18;16.17;;;9.30;;
58242;SDS011;50118;53.232;8.252;2023-03-01T11:47:55;15.85;;;10.27;;
58242;SDS011;50118;53.232;8.252;2023-03-01T11:56:03;17.50;;;10.18;;
58242;SDS011;50118;53.232;8.252;2023-03-01T12:01:17;17.95;;;10.60;;
58242;SDS011;50118;53.232;8.252;2023-03-01T12:12:26;16.60;;;10.00;;
58242;SDS011;50118;53.232;8.252;2023-03-01T12:31:15;18.67;;;10.52;;
58242;SDS011;50118;53.232;8.252;2023-03-01T12:36:54;16.48;;;10.48;;
58242;SDS011;50118;53.232;8.252;2023-03-01T12:45:13;16.55;;;11.02;;
58242;SDS011;50118;53.232;8.252;2023-03-01T12:55:43;18.33;;;11.38;;
58242;SDS011;50118;53.232;8.252;2023-03-01T12:59:11;19.92;;;11.40;;
58242;SDS011;50118;53.232;8.252;2023-03-01T13:11:40;17.42;;;10.75;;
58242;SDS011;50118;53.232;8.252;2023-03-01T13:16:48;17.55;;;11.88;;
58242;SDS011;50118;53.232;8.252;2023-03-01T13:19:15;17.02;;;11.20;;
58242;SDS011;50118;53.232;8.252;2023-03-01T13:21:43;20.27;;;11.82;;
58242;SDS011;50118;53.232;8.252;2023-03-01T13:29:44;19.45;;;11.82;;
58242;SDS011;50118;53.232;8.252;2023-03-01T13:37:44;23.00;;;13.15;;
58242;SDS011;50118;53.232;8.252;2023-03-01T13:42:49;22.45;;;14.23;;
58242;SDS011;50118;53.232;8.252;2023-03-01T13:45:36;22.95;;;14.23;;
58242;SDS011;50118;53.232;8.252;2023-03-01T13:48:11;22.30;;;14.38;;
58242;SDS011;50118;53.232;8.252;2023-03-01T13:50:56;23.98;;;13.90;;
58242;SDS011;50118;53.232;8.252;2023-03-01T13:53:25;22.25;;;13.68;;
58242;SDS011;50118;53.232;8.252;2023-03-01T13:56:00;22.80;;;13.40;;
58242;SDS011;50118;53.232;8.252;2023-03-01T13:58:33;25.27;;;16.27;;
58242;SDS011;50118;53.232;8.252;2023-03-01T14:01:30;25.45;;;15.18;;
58242;SDS011;50118;53.232;8.252;2023-03-01T14:03:55;26.80;;;17.25;;
58242;SDS011;50118;53.232;8.252;2023-03-01T14:06:23;26.55;;;16.20;;
58242;SDS011;50118;53.232;8.252;2023-03-01T14:09:02;26.17;;;16.17;;
58242;SDS011;50118;53.232;8.252;2023-03-01T14:20:12;28.08;;;17.13;;
58242;SDS011;50118;53.232;8.252;2023-03-01T14:22:44;24.98;;;15.60;;
58242;SDS011;50118;53.232;8.252;2023-03-01T14:28:04;22.88;;;14.68;;
58242;SDS011;50118;53.232;8.252;2023-03-01T14:30:43;25.23;;;15.63;;
58242;SDS011;50118;53.232;8.252;2023-03-01T14:33:20;24.73;;;15.00;;
58242;SDS011;50118;53.232;8.252;2023-03-01T14:38:29;27.60;;;16.15;;
58242;SDS011;50118;53.232;8.252;2023-03-01T14:40:57;26.45;;;15.95;;
58242;SDS011;50118;53.232;8.252;2023-03-01T14:43:26;24.80;;;14.80;;
58242;SDS011;50118;53.232;8.252;2023-03-01T14:45:54;24.67;;;14.60;;
58242;SDS011;50118;53.232;8.252;2023-03-01T14:48:19;24.25;;;15.68;;
58242;SDS011;50118;53.232;8.252;2023-03-01T14:50:45;25.55;;;16.42;;
58242;SDS011;50118;53.232;8.252;2023-03-01T14:53:15;25.25;;;16.83;;
58242;SDS011;50118;53.232;8.252;2023-03-01T14:55:47;29.95;;;16.48;;
58242;SDS011;50118;53.232;8.252;2023-03-01T15:00:49;28.13;;;17.02;;
58242;SDS011;50118;53.232;8.252;2023-03-01T15:03:38;25.02;;;16.17;;
58242;SDS011;50118;53.232;8.252;2023-03-01T15:06:08;27.60;;;17.45;;
58242;SDS011;50118;53.232;8.252;2023-03-01T15:08:37;25.75;;;16.52;;
58242;SDS011;50118;53.232;8.252;2023-03-01T15:13:38;26.27;;;15.83;;
58242;SDS011;50118;53.232;8.252;2023-03-01T15:16:12;25.67;;;15.35;;
58242;SDS011;50118;53.232;8.252;2023-03-01T15:18:45;26.20;;;16.13;;
58242;SDS011;50118;53.232;8.252;2023-03-01T15:26:43;25.73;;;16.25;;
58242;SDS011;50118;53.232;8.252;2023-03-01T15:29:15;26.70;;;15.77;;
58242;SDS011;50118;53.232;8.252;2023-03-01T15:31:50;26.52;;;16.35;;
58242;SDS011;50118;53.232;8.252;2023-03-01T15:36:57;26.98;;;17.02;;
58242;SDS011;50118;53.232;8.252;2023-03-01T15:41:58;27.73;;;16.70;;
58242;SDS011;50118;53.232;8.252;2023-03-01T15:44:27;28.70;;;16.35;;
58242;SDS011;50118;53.232;8.252;2023-03-01T15:46:59;25.27;;;16.40;;
58242;SDS011;50118;53.232;8.252;2023-03-01T15:49:27;28.50;;;16.92;;
58242;SDS011;50118;53.232;8.252;2023-03-01T15:52:10;27.98;;;17.15;;
58242;SDS011;50118;53.232;8.252;2023-03-01T15:54:43;26.05;;;16.42;;
58242;SDS011;50118;53.232;8.252;2023-03-01T15:57:13;27.75;;;16.05;;
58242;SDS011;50118;53.232;8.252;2023-03-01T15:59:40;28.17;;;17.00;;
58242;SDS011;50118;53.232;8.252;2023-03-01T16:02:10;25.40;;;16.33;;
58242;SDS011;50118;53.232;8.252;2023-03-01T16:04:37;26.65;;;15.50;;
58242;SDS011;50118;53.232;8.252;2023-03-01T16:07:03;29.00;;;16.15;;
58242;SDS011;50118;53.232;8.252;2023-03-01T16:09:29;28.67;;;16.95;;
58242;SDS011;50118;53.232;8.252;2023-03-01T16:11:55;29.55;;;17.50;;
58242;SDS011;50118;53.232;8.252;2023-03-01T16:14:20;28.77;;;16.92;;
58242;SDS011;50118;53.232;8.252;2023-03-01T16:16:47;28.40;;;15.90;;
58242;SDS011;50118;53.232;8.252;2023-03-01T16:19:13;26.58;;;17.30;;
58242;SDS011;50118;53.232;8.252;2023-03-01T16:21:39;28.77;;;17.75;;
58242;SDS011;50118;53.232;8.252;2023-03-01T16:24:05;29.55;;;16.65;;
58242;SDS011;50118;53.232;8.252;2023-03-01T16:26:31;28.95;;;18.15;;
58242;SDS011;50118;53.232;8.252;2023-03-01T16:28:57;27.65;;;17.05;;
58242;SDS011;50118;53.232;8.252;2023-03-01T16:31:23;30.75;;;18.98;;
58242;SDS011;50118;53.232;8.252;2023-03-01T16:33:55;29.77;;;18.10;;
58242;SDS011;50118;53.232;8.252;2023-03-01T16:36:22;30.35;;;18.67;;
58242;SDS011;50118;53.232;8.252;2023-03-01T16:38:49;31.88;;;19.50;;
58242;SDS011;50118;53.232;8.252;2023-03-01T16:41:16;29.27;;;18.23;;
58242;SDS011;50118;53.232;8.252;2023-03-01T16:43:43;31.88;;;19.15;;
58242;SDS011;50118;53.232;8.252;2023-03-01T16:46:15;28.80;;;19.45;;
58242;SDS011;50118;53.232;8.252;2023-03-01T16:48:43;30.83;;;18.88;;
58242;SDS011;50118;53.232;8.252;2023-03-01T16:51:09;29.67;;;19.17;;
58242;SDS011;50118;53.232;8.252;2023-03-01T16:53:35;31.52;;;18.55;;
58242;SDS011;50118;53.232;8.252;2023-03-01T16:56:01;30.10;;;19.15;;
58242;SDS011;50118;53.232;8.252;2023-03-01T16:58:28;27.35;;;17.13;;
58242;SDS011;50118;53.232;8.252;2023-03-01T17:00:54;29.05;;;18.75;;
58242;SDS011;50118;53.232;8.252;2023-03-01T17:03:21;33.42;;;19.92;;